Time;durP1;ratioP1;P1;durP2;ratioP2;P2;SDS_P1;SDS_P2;PMS_P1;PMS_P2;Temp;Humidity;BMP_temperature;BMP_pressure;BME280_temperature;BME280_humidity;BME280_pressure;Samples;Min_cycle;Max_cycle;Signal;HPM_P1;HPM_P2
2022/07/22 00:01:43;;;;;;;7.85;7.35;;;;;;;20.45;74.55;100205.69;10457034;28;20099;-68
2022/07/22 00:06:45;;;;;;;7.68;7.18;;;;;;;20.72;71.99;100200.25;10455583;28;20095;-68
2022/07/22 00:11:46;;;;;;;7.80;7.13;;;;;;;20.27;74.54;100201.63;10455976;28;20056;-68
2022/07/22 00:16:48;;;;;;;7.90;7.40;;;;;;;20.10;75.35;100217.00;10459829;28;20561;-68
2022/07/22 00:22:22;;;;;;;7.55;7.05;;;;;;;19.96;76.00;100219.75;10461576;22;20037;-72
2022/07/22 00:27:23;;;;;;;7.93;7.40;;;;;;;20.08;75.58;100213.56;10406571;28;20503;-71
2022/07/22 00:32:25;;;;;;;7.35;6.75;;;;;;;20.09;75.50;100214.44;10424265;28;20053;-72
2022/07/22 00:37:27;;;;;;;6.80;6.32;;;;;;;20.36;73.82;100215.22;10423367;28;20047;-71
2022/07/22 00:42:28;;;;;;;7.63;6.93;;;;;;;20.26;72.97;100223.94;10424566;28;20087;-71
2022/07/22 00:47:30;;;;;;;7.05;6.45;;;;;;;19.84;75.23;100215.25;10408445;28;20095;-73
2022/07/22 00:52:33;;;;;;;6.82;6.30;;;;;;;19.58;77.16;100220.47;10407946;28;20049;-72
2022/07/22 00:57:34;;;;;;;7.25;6.75;;;;;;;19.47;79.00;100222.97;10406236;28;20053;-72
2022/07/22 01:02:36;;;;;;;9.07;8.57;;;;;;;19.55;81.80;100226.00;10423289;28;20120;-72
2022/07/22 01:07:38;;;;;;;9.10;8.50;;;;;;;19.55;82.79;100230.50;10422711;28;20052;-72
2022/07/22 01:12:41;;;;;;;9.00;8.30;;;;;;;19.89;79.46;100235.31;10422495;28;20506;-71
2022/07/22 01:17:44;;;;;;;7.50;7.00;;;;;;;19.86;79.42;100224.84;10405750;28;20042;-72
2022/07/22 01:22:46;;;;;;;8.52;7.93;;;;;;;19.55;80.34;100220.69;10422294;28;20099;-71
2022/07/22 01:27:47;;;;;;;8.85;8.07;;;;;;;19.26;82.05;100217.28;10423178;28;20046;-72
2022/07/22 01:32:50;;;;;;;8.75;8.05;;;;;;;19.13;82.87;100229.66;10421651;28;20045;-72
2022/07/22 01:37:51;;;;;;;8.52;7.93;;;;;;;19.10;83.02;100225.38;10422407;28;20046;-71
2022/07/22 01:42:54;;;;;;;8.93;8.07;;;;;;;19.19;81.71;100225.75;10405355;28;20073;-71
2022/07/22 01:47:56;;;;;;;7.82;7.28;;;;;;;19.21;81.05;100231.81;10404868;28;20096;-71
2022/07/22 01:52:58;;;;;;;6.85;6.15;;;;;;;19.10;77.72;100229.84;10405332;28;20136;-73
2022/07/22 01:58:03;;;;;;;7.18;4.97;;;;;;;19.13;75.44;100232.34;10387715;28;20042;-73
2022/07/22 02:03:08;;;;;;;5.68;5.25;;;;;;;19.10;75.40;100224.53;10421640;28;20052;-72
2022/07/22 02:08:11;;;;;;;5.25;4.85;;;;;;;19.10;74.30;100225.38;10421092;28;20056;-73
2022/07/22 02:13:38;;;;;;;6.40;4.47;;;;;;;19.16;73.32;100224.13;10421981;28;20053;-72
2022/07/22 02:18:40;;;;;;;4.25;3.95;;;;;;;19.01;74.46;100223.31;10421756;28;20044;-72
2022/07/22 02:23:43;;;;;;;4.72;4.32;;;;;;;18.95;74.86;100229.03;10403435;28;20049;-72
2022/07/22 02:28:45;;;;;;;4.55;4.00;;;;;;;18.84;75.14;100215.53;10420593;28;20053;-72
2022/07/22 02:33:47;;;;;;;4.13;3.83;;;;;;;18.84;74.91;100224.38;10403697;28;20125;-72
2022/07/22 02:38:50;;;;;;;4.10;3.80;;;;;;;18.94;72.74;100223.78;10419262;28;20494;-72
2022/07/22 02:43:53;;;;;;;4.05;3.78;;;;;;;18.89;72.90;100229.41;10402389;28;20041;-72
2022/07/22 02:48:57;;;;;;;5.00;3.72;;;;;;;18.76;74.57;100228.47;10385574;28;20506;-71
2022/07/22 02:54:00;;;;;;;4.95;4.30;;;;;;;18.66;74.47;100237.00;10401984;28;20057;-71
2022/07/22 02:59:02;;;;;;;4.10;3.72;;;;;;;18.65;74.39;100251.25;10418029;28;20145;-71
2022/07/22 03:04:04;;;;;;;4.07;3.78;;;;;;;18.63;74.09;100250.50;10419562;28;20395;-71
2022/07/22 03:09:08;;;;;;;4.38;4.07;;;;;;;19.09;71.96;100257.47;10385291;28;20100;-73
2022/07/22 03:14:16;;;;;;;;;;;;;;;19.37;70.01;100260.06;10417854;28;20056;-71
2022/07/22 03:19:18;;;;;;;5.25;4.75;;;;;;;19.25;70.40;100255.50;10400658;28;19971;-72
2022/07/22 03:24:24;;;;;;;5.20;4.80;;;;;;;19.12;71.23;100274.13;10400146;28;20128;-71
2022/07/22 03:29:26;;;;;;;4.60;4.30;;;;;;;19.14;70.94;100274.00;10416507;28;20045;-71
2022/07/22 03:34:28;;;;;;;4.50;4.18;;;;;;;18.99;72.04;100270.50;10416435;28;20052;-72
2022/07/22 03:39:38;;;;;;;5.80;5.30;;;;;;;19.11;72.09;100271.53;10386257;28;20053;-72
2022/07/22 03:44:39;;;;;;;4.95;4.20;;;;;;;19.12;71.73;100267.91;10418051;28;20049;-72
2022/07/22 03:49:41;;;;;;;5.45;4.95;;;;;;;19.16;71.09;100272.09;10401086;28;20065;-72
2022/07/22 03:54:46;;;;;;;5.15;4.75;;;;;;;19.21;70.08;100264.66;10425804;28;20407;-72
2022/07/22 03:59:48;;;;;;;5.90;5.40;;;;;;;19.03;71.79;100268.50;10427061;28;20046;-72
2022/07/22 04:04:50;;;;;;;5.50;5.00;;;;;;;18.87;73.02;100274.78;10427780;28;20084;-72
2022/07/22 04:10:04;;;;;;;5.35;4.95;;;;;;;18.82;73.21;100282.22;10409926;28;20056;-72
2022/07/22 04:15:09;;;;;;;5.15;4.72;;;;;;;18.90;72.61;100279.94;10425319;28;20057;-72
2022/07/22 04:20:11;;;;;;;5.25;4.85;;;;;;;19.26;70.10;100283.91;10407758;28;20138;-72
2022/07/22 04:25:38;;;;;;;6.32;5.20;;;;;;;19.41;69.60;100280.22;10416597;28;20060;-72
2022/07/22 04:30:40;;;;;;;5.25;4.80;;;;;;;19.24;71.01;100284.94;10406947;28;20053;-72
2022/07/22 04:35:43;;;;;;;5.00;4.70;;;;;;;19.26;71.57;100280.38;10423589;28;20041;-72
2022/07/22 04:40:48;;;;;;;5.15;4.70;;;;;;;19.49;70.81;100277.06;10407230;28;20418;-72
2022/07/22 04:45:57;;;;;;;5.15;4.82;;;;;;;19.85;68.65;100278.31;10422305;28;20041;-72
2022/07/22 04:51:04;;;;;;;5.78;4.72;;;;;;;19.94;69.04;100275.03;10406343;28;20518;-72
2022/07/22 04:56:07;;;;;;;5.18;4.38;;;;;;;20.25;67.40;100278.31;10423736;28;20034;-73
2022/07/22 05:01:10;;;;;;;4.82;4.43;;;;;;;20.23;67.05;100278.41;10388284;28;20116;-71
2022/07/22 05:06:12;;;;;;;4.88;4.47;;;;;;;20.23;68.17;100283.75;10405263;28;20064;-73
2022/07/22 05:11:17;;;;;;;4.28;3.92;;;;;;;20.21;68.48;100284.81;10423184;28;20057;-73
2022/07/22 05:16:20;;;;;;;4.47;4.18;;;;;;;20.31;68.39;100286.72;10405096;28;20498;-73
2022/07/22 05:21:23;;;;;;;4.53;4.13;;;;;;;21.09;65.50;100281.31;10406268;28;20496;-72
2022/07/22 05:26:28;;;;;;;5.95;4.72;;;;;;;21.15;65.40;100282.69;10421687;28;20087;-73
2022/07/22 05:31:30;;;;;;;4.15;3.83;;;;;;;21.25;65.70;100285.53;10405417;28;20079;-73
2022/07/22 05:36:32;;;;;;;4.50;4.10;;;;;;;21.60;63.72;100278.53;10420526;28;20137;-72
2022/07/22 05:41:34;;;;;;;4.63;3.90;;;;;;;21.48;63.83;100281.25;10403976;28;20103;-74
2022/07/22 05:46:36;;;;;;;4.70;3.80;;;;;;;21.38;65.12;100286.41;10420405;28;20052;-73
2022/07/22 05:51:39;;;;;;;3.80;3.50;;;;;;;21.47;64.86;100275.06;10420431;28;20083;-71
2022/07/22 05:56:41;;;;;;;3.67;3.38;;;;;;;22.32;62.23;100272.28;10419364;28;20041;-73
2022/07/22 06:01:43;;;;;;;3.60;3.30;;;;;;;22.91;58.69;100269.44;10403294;28;20052;-74
2022/07/22 06:07:06;;;;;;;3.53;3.22;;;;;;;22.86;58.36;100260.91;10421476;28;20053;-72
2022/07/22 06:12:08;;;;;;;4.38;3.70;;;;;;;23.15;58.08;100262.16;10421500;28;20044;-73
2022/07/22 06:17:10;;;;;;;3.15;2.95;;;;;;;23.85;55.26;100266.25;10402616;28;20052;-73
2022/07/22 06:22:12;;;;;;;4.13;3.70;;;;;;;24.11;54.03;100261.38;10401077;28;20046;-72
2022/07/22 06:27:14;;;;;;;3.35;3.05;;;;;;;24.35;53.78;100271.03;10460222;22;20405;-70
2022/07/22 06:32:16;;;;;;;3.80;3.10;;;;;;;24.45;52.64;100263.91;10441728;28;20136;-70
2022/07/22 06:37:22;;;;;;;3.67;2.92;;;;;;;24.69;52.73;100276.19;10443028;28;20060;-71
2022/07/22 06:42:44;;;;;;;3.53;3.22;;;;;;;24.43;52.98;100268.53;10442343;28;20094;-70
2022/07/22 06:48:04;;;;;;;3.05;2.75;;;;;;;24.46;54.65;100275.50;10460288;28;20045;-70
2022/07/22 06:53:06;;;;;;;3.25;2.95;;;;;;;24.98;51.46;100274.50;10442520;28;20048;-72
2022/07/22 06:58:09;;;;;;;4.25;2.75;;;;;;;24.45;53.02;100271.97;10441830;28;20049;-72
2022/07/22 07:03:11;;;;;;;3.28;2.97;;;;;;;23.84;55.24;100269.91;10459415;28;20075;-70
2022/07/22 07:08:40;;;;;;;4.20;3.80;;;;;;;24.06;54.12;100271.66;10441506;28;20470;-70
2022/07/22 07:13:42;;;;;;;3.25;3.03;;;;;;;24.15;54.68;100256.59;10441080;28;20128;-70
2022/07/22 07:18:44;;;;;;;3.92;3.72;;;;;;;23.98;54.31;100270.59;10440552;28;20099;-71
2022/07/22 07:23:45;;;;;;;4.20;3.90;;;;;;;24.15;54.00;100259.28;10442253;28;20135;-70
2022/07/22 07:28:48;;;;;;;3.60;3.30;;;;;;;24.61;53.91;100258.03;10440166;28;20048;-71
2022/07/22 07:34:07;;;;;;;3.92;3.63;;;;;;;25.44;51.50;100258.81;10441575;28;20383;-71
2022/07/22 07:39:09;;;;;;;4.07;3.28;;;;;;;25.49;51.08;100256.53;10440355;28;20049;-70
2022/07/22 07:44:11;;;;;;;4.25;3.35;;;;;;;25.27;51.60;100250.41;10441118;28;20045;-70
2022/07/22 07:49:13;;;;;;;3.65;3.40;;;;;;;25.62;49.95;100249.06;10439897;28;20476;-71
2022/07/22 07:54:15;;;;;;;3.83;3.40;;;;;;;25.33;49.89;100252.56;10423566;28;20060;-71
2022/07/22 07:59:19;;;;;;;3.92;3.63;;;;;;;25.34;51.35;100242.63;10439500;28;20576;-71
2022/07/22 08:04:35;;;;;;;4.05;3.75;;;;;;;25.59;49.15;100246.66;10440642;28;20503;-70
2022/07/22 08:09:47;;;;;;;6.15;3.72;;;;;;;25.91;49.60;100243.72;10439954;28;20053;-71
2022/07/22 08:15:05;;;;;;;3.72;3.05;;;;;;;26.80;47.66;100246.13;10440657;28;20505;-71
2022/07/22 08:20:39;;;;;;;3.97;3.67;;;;;;;26.66;46.54;100234.81;10447181;28;20134;-71
2022/07/22 08:25:40;;;;;;;4.35;3.90;;;;;;;26.82;46.25;100247.66;10441925;28;20041;-71
2022/07/22 08:30:43;;;;;;;4.40;3.83;;;;;;;27.23;46.14;100242.81;10440947;28;20053;-71
2022/07/22 08:35:45;;;;;;;3.83;3.53;;;;;;;27.20;45.91;100239.56;10440128;28;20087;-71
2022/07/22 08:40:47;;;;;;;3.53;3.20;;;;;;;26.77;46.70;100228.38;10445469;28;20605;-71
2022/07/22 08:45:50;;;;;;;3.47;3.17;;;;;;;27.30;45.47;100237.66;10462926;28;20497;-71
2022/07/22 08:50:52;;;;;;;3.63;3.33;;;;;;;27.19;45.66;100230.63;10447168;28;20135;-72
2022/07/22 08:56:17;;;;;;;5.93;3.80;;;;;;;28.16;43.96;100233.47;10421471;28;20616;-71
2022/07/22 09:01:19;;;;;;;3.92;3.70;;;;;;;28.20;42.54;100230.41;10444493;28;20044;-71
2022/07/22 09:06:27;;;;;;;4.00;3.70;;;;;;;28.54;41.86;100230.53;10445421;28;20048;-72
2022/07/22 09:11:30;;;;;;;4.13;3.80;;;;;;;28.59;41.86;100234.44;10433769;28;20053;-72
2022/07/22 09:17:01;;;;;;;4.75;3.92;;;;;;;28.41;41.44;100236.34;10406329;28;20060;-71
2022/07/22 09:22:12;;;;;;;3.70;3.50;;;;;;;27.62;42.03;100229.03;10479837;28;20099;-71
2022/07/22 09:27:36;;;;;;;4.03;3.67;;;;;;;27.99;41.84;100228.09;10406330;28;20128;-71
2022/07/22 09:33:06;;;;;;;4.82;4.15;;;;;;;28.23;40.24;100230.13;10418484;28;20057;-71
2022/07/22 09:38:27;;;;;;;3.45;3.15;;;;;;;28.59;40.70;100229.03;10409111;28;20054;-71
2022/07/22 09:43:35;;;;;;;5.82;2.88;;;;;;;28.81;40.32;100215.94;10486502;28;20048;-72
2022/07/22 09:48:38;;;;;;;4.32;3.63;;;;;;;28.83;39.10;100224.78;10485727;28;20089;-71
2022/07/22 09:53:50;;;;;;;4.13;3.70;;;;;;;28.41;40.46;100222.84;10486941;28;20048;-72
2022/07/22 09:58:57;;;;;;;3.97;3.58;;;;;;;28.82;39.14;100215.81;10411621;28;20519;-71
2022/07/22 10:04:06;;;;;;;4.57;4.03;;;;;;;28.52;38.91;100216.31;10401566;28;20107;-71
2022/07/22 10:09:14;;;;;;;4.07;3.78;;;;;;;28.09;40.19;100223.44;10403330;28;20077;-71
2022/07/22 10:14:18;;;;;;;4.13;3.78;;;;;;;28.59;38.36;100215.50;10404961;28;20422;-70
2022/07/22 10:19:26;;;;;;;4.18;3.80;;;;;;;28.19;38.85;100197.13;10460868;28;20091;-70
2022/07/22 10:24:28;;;;;;;5.38;3.53;;;;;;;28.39;38.37;100203.22;10445956;28;20053;-70
2022/07/22 10:29:47;;;;;;;5.20;3.33;;;;;;;29.12;37.23;100198.19;10444519;28;20045;-71
2022/07/22 10:34:57;;;;;;;3.63;3.33;;;;;;;29.31;37.13;100197.06;10463435;28;20041;-70
2022/07/22 10:40:17;;;;;;;3.92;3.65;;;;;;;29.42;37.28;100198.59;10444264;28;20100;-70
2022/07/22 10:45:18;;;;;;;3.40;3.05;;;;;;;29.47;38.15;100198.09;10459761;28;20044;-70
2022/07/22 10:50:35;;;;;;;4.60;3.38;;;;;;;28.49;39.99;100201.25;10460072;28;20422;-70
2022/07/22 10:55:58;;;;;;;4.50;3.53;;;;;;;29.23;38.44;100196.19;10459174;28;20040;-70
2022/07/22 11:01:03;;;;;;;5.82;3.58;;;;;;;29.21;37.49;100198.19;10460297;28;20052;-70
2022/07/22 11:06:19;;;;;;;3.35;3.05;;;;;;;29.75;37.46;100204.94;10459919;28;20073;-70
2022/07/22 11:11:53;;;;;;;3.47;3.15;;;;;;;29.48;38.24;100200.63;10459065;28;20044;-72
2022/07/22 11:16:58;;;;;;;3.45;3.15;;;;;;;28.99;37.61;100189.66;10293990;28;20140;-71
2022/07/22 11:22:04;;;;;;;3.03;2.75;;;;;;;29.55;37.66;100196.28;10277816;28;20149;-71
2022/07/22 11:27:15;;;;;;;4.00;2.80;;;;;;;29.47;37.63;100185.41;10275778;28;20047;-71
2022/07/22 11:32:17;;;;;;;3.97;2.65;;;;;;;29.59;38.01;100180.53;10293461;28;20070;-71
2022/07/22 11:37:23;;;;;;;4.22;2.63;;;;;;;29.81;37.13;100179.03;10292304;28;20068;-71
2022/07/22 11:42:25;;;;;;;3.03;2.72;;;;;;;30.00;36.20;100159.69;10292005;28;20146;-71
2022/07/22 11:47:27;;;;;;;3.50;2.75;;;;;;;29.65;37.06;100159.03;10295029;28;20127;-71
2022/07/22 11:52:29;;;;;;;2.78;2.35;;;;;;;30.43;36.25;100145.91;10375990;28;20110;-71
2022/07/22 11:57:31;;;;;;;3.00;2.45;;;;;;;30.35;35.85;100152.22;10459247;28;20033;-71
2022/07/22 12:02:32;;;;;;;4.05;2.85;;;;;;;30.06;36.06;100144.59;10458828;28;20053;-71
2022/07/22 12:07:38;;;;;;;4.80;2.65;;;;;;;29.87;36.60;100143.09;10445816;28;20155;-71
2022/07/22 12:12:40;;;;;;;2.95;2.25;;;;;;;30.84;34.93;100141.19;10462141;28;20049;-71
2022/07/22 12:17:42;;;;;;;2.85;2.30;;;;;;;29.94;36.20;100133.28;10449892;28;20041;-70
2022/07/22 12:22:45;;;;;;;2.72;2.53;;;;;;;30.21;36.47;100126.66;10466122;28;20041;-71
2022/07/22 12:28:01;;;;;;;2.30;2.10;;;;;;;30.64;35.38;100135.34;10459794;22;20415;-69
2022/07/22 12:33:03;;;;;;;3.38;2.60;;;;;;;30.19;36.06;100123.25;10463740;28;20473;-69
2022/07/22 12:38:10;;;;;;;3.53;2.00;;;;;;;30.28;35.62;100127.66;10444979;28;20071;-69
2022/07/22 12:43:11;;;;;;;3.22;1.85;;;;;;;30.62;35.70;100121.94;10462987;28;20041;-69
2022/07/22 12:48:15;;;;;;;3.53;2.05;;;;;;;30.48;35.83;100114.53;10462541;28;20123;-70
2022/07/22 12:53:17;;;;;;;2.85;1.90;;;;;;;31.00;34.00;100116.69;10462930;28;20417;-68
2022/07/22 12:58:21;;;;;;;3.67;1.80;;;;;;;31.05;34.33;100111.56;10462073;28;20045;-69
2022/07/22 13:03:25;;;;;;;2.42;2.22;;;;;;;31.30;33.56;100112.28;10461895;28;20044;-68
2022/07/22 13:08:28;;;;;;;2.72;2.00;;;;;;;30.32;34.75;100099.16;10462207;28;20483;-70
2022/07/22 13:13:47;;;;;;;2.83;1.88;;;;;;;31.08;34.38;100097.63;10462326;28;20055;-70
2022/07/22 13:18:52;;;;;;;1.80;1.70;;;;;;;30.25;34.61;100100.88;10443541;28;20405;-70
2022/07/22 13:23:54;;;;;;;2.83;1.58;;;;;;;30.55;34.80;100090.28;10460160;28;20080;-70
2022/07/22 13:28:56;;;;;;;1.98;1.60;;;;;;;30.74;34.63;100079.00;10461094;28;20079;-69
2022/07/22 13:33:58;;;;;;;2.60;1.70;;;;;;;30.61;34.12;100081.41;10462197;28;20044;-69
2022/07/22 13:39:02;;;;;;;1.70;1.60;;;;;;;30.82;33.91;100086.25;10460851;28;20037;-70
2022/07/22 13:44:06;;;;;;;2.00;1.77;;;;;;;30.57;34.12;100080.06;10460359;28;20052;-70
2022/07/22 13:49:11;;;;;;;1.48;1.38;;;;;;;30.26;34.37;100074.63;10426215;28;20124;-70
2022/07/22 13:54:13;;;;;;;1.77;1.58;;;;;;;30.17;34.96;100071.09;10459913;28;20052;-70
2022/07/22 13:59:16;;;;;;;1.75;1.52;;;;;;;30.54;34.61;100067.69;10463523;28;20056;-70
2022/07/22 14:04:18;;;;;;;3.97;1.58;;;;;;;30.67;33.70;100067.97;10464167;28;20045;-69
2022/07/22 14:09:21;;;;;;;2.63;1.60;;;;;;;30.22;34.51;100057.00;10463670;28;20072;-69
2022/07/22 14:14:39;;;;;;;1.45;1.35;;;;;;;30.34;34.96;100059.16;10461273;28;20124;-69
2022/07/22 14:19:41;;;;;;;2.05;1.48;;;;;;;30.31;34.49;100059.50;10460963;28;20047;-70
2022/07/22 14:24:43;;;;;;;2.40;1.50;;;;;;;30.47;34.44;100061.31;10459953;28;20044;-70
2022/07/22 14:29:44;;;;;;;1.70;1.50;;;;;;;30.52;34.03;100056.19;10463634;28;20037;-69
2022/07/22 14:34:46;;;;;;;1.98;1.40;;;;;;;30.44;34.20;100048.09;10462670;28;20064;-69
2022/07/22 14:39:48;;;;;;;2.28;1.30;;;;;;;30.28;33.99;100046.31;10461419;28;20048;-69
2022/07/22 14:44:50;;;;;;;1.20;1.10;;;;;;;30.52;34.50;100041.78;10463665;28;20144;-69
2022/07/22 14:49:52;;;;;;;3.00;1.30;;;;;;;30.62;33.96;100043.25;10460985;28;20041;-69
2022/07/22 14:54:54;;;;;;;1.30;1.20;;;;;;;30.43;34.08;100041.00;10461249;28;20049;-69
2022/07/22 14:59:56;;;;;;;1.83;1.55;;;;;;;31.02;33.01;100045.91;10462561;28;20037;-69
2022/07/22 15:04:58;;;;;;;2.17;1.60;;;;;;;30.97;33.17;100041.03;10464905;28;20123;-69
2022/07/22 15:10:00;;;;;;;1.70;1.30;;;;;;;30.95;33.07;100047.69;10447975;28;20048;-68
2022/07/22 15:15:03;;;;;;;1.70;1.30;;;;;;;30.52;33.75;100039.94;10444097;28;20044;-69
2022/07/22 15:20:06;;;;;;;2.25;1.17;;;;;;;30.98;33.28;100025.59;10462375;28;20064;-68
2022/07/22 15:25:08;;;;;;;2.05;1.20;;;;;;;31.24;32.75;100014.34;10463027;28;20095;-68
2022/07/22 15:30:11;;;;;;;3.40;1.40;;;;;;;30.48;34.00;100030.44;10445718;28;20041;-68
2022/07/22 15:35:13;;;;;;;3.65;1.35;;;;;;;31.13;33.05;100015.63;10462441;28;20395;-69
2022/07/22 15:40:18;;;;;;;2.10;1.30;;;;;;;30.63;33.21;100011.53;10462036;28;20044;-69
2022/07/22 15:45:20;;;;;;;1.55;1.30;;;;;;;30.70;33.30;100009.81;10463798;28;20040;-68
2022/07/22 15:50:33;;;;;;;1.40;1.30;;;;;;;31.02;32.81;100011.47;10466887;28;20037;-69
2022/07/22 15:55:36;;;;;;;1.95;1.40;;;;;;;31.72;31.95;100010.34;10462748;28;20052;-69
2022/07/22 16:00:41;;;;;;;2.45;1.40;;;;;;;30.85;32.92;100010.72;10465625;28;20049;-69
2022/07/22 16:05:43;;;;;;;1.40;1.23;;;;;;;31.09;32.76;99998.03;10466035;28;20499;-69
2022/07/22 16:10:46;;;;;;;2.42;1.38;;;;;;;30.98;32.73;99996.56;10468898;28;20049;-70
2022/07/22 16:15:53;;;;;;;2.03;1.50;;;;;;;30.96;32.44;99985.06;10466684;28;20048;-69
2022/07/22 16:20:55;;;;;;;1.50;1.40;;;;;;;29.77;34.50;99974.47;10465933;28;20052;-69
2022/07/22 16:25:57;;;;;;;1.95;1.08;;;;;;;29.55;34.60;99976.00;10469234;28;20049;-69
2022/07/22 16:31:00;;;;;;;1.98;1.52;;;;;;;29.98;34.00;99971.19;10468660;28;20055;-69
2022/07/22 16:36:02;;;;;;;2.35;1.27;;;;;;;29.87;34.08;99969.69;10468658;28;20063;-69
2022/07/22 16:41:04;;;;;;;1.98;1.20;;;;;;;29.51;34.66;99964.69;10464238;28;20041;-69
2022/07/22 16:46:06;;;;;;;1.80;1.30;;;;;;;29.39;34.90;99968.75;10465521;28;20041;-69
2022/07/22 16:51:09;;;;;;;2.30;1.70;;;;;;;29.33;35.51;99975.72;10463832;28;20065;-69
2022/07/22 16:56:11;;;;;;;2.97;1.55;;;;;;;29.48;35.42;99975.00;10428497;28;20041;-69
2022/07/22 17:01:14;;;;;;;2.42;1.17;;;;;;;29.14;35.54;99976.09;10468103;28;20041;-69
2022/07/22 17:06:16;;;;;;;1.20;1.05;;;;;;;28.78;36.17;99972.84;10467421;28;20040;-68
2022/07/22 17:11:18;;;;;;;1.40;1.30;;;;;;;28.58;36.58;99966.88;10469490;28;20045;-70
2022/07/22 17:16:20;;;;;;;2.78;1.50;;;;;;;28.75;36.83;99954.22;10469174;28;20545;-69
2022/07/22 17:21:22;;;;;;;2.03;1.60;;;;;;;28.53;36.94;99953.84;10468372;28;20063;-68
2022/07/22 17:26:26;;;;;;;1.38;1.17;;;;;;;28.30;37.34;99959.00;10468550;28;20090;-68
2022/07/22 17:31:28;;;;;;;3.05;1.30;;;;;;;28.25;37.45;99960.53;10469327;28;20076;-68
2022/07/22 17:36:29;;;;;;;1.27;1.13;;;;;;;27.99;37.85;99944.38;10467449;28;20059;-68
2022/07/22 17:41:32;;;;;;;3.70;1.48;;;;;;;27.68;38.55;99942.19;10468021;28;20053;-68
2022/07/22 17:46:34;;;;;;;1.35;1.10;;;;;;;27.62;38.91;99950.91;10468525;28;20418;-68
2022/07/22 17:51:36;;;;;;;2.17;1.33;;;;;;;27.44;39.42;99940.19;10452247;28;20110;-68
2022/07/22 17:56:38;;;;;;;1.48;1.38;;;;;;;27.39;40.12;99939.81;10469380;28;20033;-68
2022/07/22 18:01:40;;;;;;;1.70;1.20;;;;;;;27.47;39.74;99939.03;10469153;28;20049;-69
2022/07/22 18:06:42;;;;;;;3.55;1.42;;;;;;;27.27;39.92;99946.47;10467405;28;20048;-70
2022/07/22 18:11:45;;;;;;;4.60;1.80;;;;;;;27.42;39.84;99942.22;10467486;28;20114;-70
2022/07/22 18:16:47;;;;;;;2.92;1.40;;;;;;;27.23;40.61;99947.84;10469951;28;20036;-70
2022/07/22 18:21:50;;;;;;;4.20;1.70;;;;;;;27.09;40.86;99943.81;10448846;28;20044;-69
2022/07/22 18:26:52;;;;;;;1.45;1.33;;;;;;;26.89;41.18;99946.69;10528173;22;20055;-72
2022/07/22 18:31:53;;;;;;;2.83;1.30;;;;;;;26.90;40.90;99934.88;10547519;28;20039;-72
2022/07/22 18:36:56;;;;;;;2.22;1.52;;;;;;;27.02;40.95;99940.03;10545161;28;20463;-71
2022/07/22 18:41:57;;;;;;;1.92;1.40;;;;;;;26.71;41.87;99950.41;10543327;28;20051;-71
2022/07/22 18:46:59;;;;;;;4.88;1.40;;;;;;;26.54;42.25;99954.78;10525789;28;20066;-72
2022/07/22 18:52:03;;;;;;;1.55;1.20;;;;;;;26.28;42.56;99954.63;10545876;28;20076;-71
2022/07/22 18:57:05;;;;;;;3.78;1.83;;;;;;;26.31;42.81;99959.75;10527025;28;20040;-72
2022/07/22 19:02:06;;;;;;;2.25;1.38;;;;;;;26.16;43.49;99956.69;10544767;28;20051;-72
2022/07/22 19:07:08;;;;;;;5.25;1.98;;;;;;;25.98;44.19;99962.03;10544042;28;20036;-72
2022/07/22 19:12:10;;;;;;;1.60;1.50;;;;;;;25.88;44.38;99964.78;10544222;28;20056;-72
2022/07/22 19:17:11;;;;;;;2.95;1.83;;;;;;;25.67;45.43;99966.81;10545688;28;20403;-72
2022/07/22 19:22:13;;;;;;;2.00;1.60;;;;;;;25.45;46.03;99976.09;10542957;28;20048;-71
2022/07/22 19:27:16;;;;;;;4.15;1.58;;;;;;;25.44;46.25;99979.78;10542369;28;20528;-72
2022/07/22 19:32:18;;;;;;;1.65;1.30;;;;;;;25.33;46.67;99985.34;10543536;28;20113;-72
2022/07/22 19:37:19;;;;;;;3.63;1.50;;;;;;;25.32;46.36;99991.69;10544419;28;20055;-72
2022/07/22 19:42:28;;;;;;;3.58;1.60;;;;;;;25.30;46.43;99985.63;10523273;28;20048;-72
2022/07/22 19:47:29;;;;;;;1.50;1.40;;;;;;;25.15;46.78;99987.91;10541967;28;20404;-72
2022/07/22 19:52:31;;;;;;;4.55;1.80;;;;;;;24.87;48.98;99989.56;10523192;28;20048;-72
2022/07/22 19:57:34;;;;;;;4.15;1.50;;;;;;;24.69;49.26;100002.03;10543908;28;20051;-72
2022/07/22 20:02:36;;;;;;;1.92;1.50;;;;;;;24.67;50.17;99994.09;10543717;28;20048;-72
2022/07/22 20:07:38;;;;;;;4.78;1.50;;;;;;;24.70;48.79;100001.88;10524411;28;20063;-71
2022/07/22 20:12:40;;;;;;;1.90;1.52;;;;;;;24.80;48.12;100009.97;10543026;28;20056;-74
2022/07/22 20:17:42;;;;;;;1.48;1.20;;;;;;;24.74;48.35;100007.81;10524266;28;20036;-74
2022/07/22 20:22:44;;;;;;;1.30;1.05;;;;;;;24.36;50.10;100020.19;10544331;28;20036;-73
2022/07/22 20:27:46;;;;;;;1.42;1.25;;;;;;;24.37;50.01;100032.66;10506832;28;20492;-73
2022/07/22 20:32:47;;;;;;;1.35;1.25;;;;;;;24.02;52.50;100025.84;10526618;28;20040;-73
2022/07/22 20:37:49;;;;;;;3.53;1.45;;;;;;;23.99;53.15;100044.06;10548813;28;20071;-72
2022/07/22 20:42:51;;;;;;;2.92;1.40;;;;;;;24.03;51.47;100042.81;10549657;28;20393;-74
2022/07/22 20:47:53;;;;;;;2.38;1.40;;;;;;;24.02;51.48;100046.50;10530947;28;20078;-74
2022/07/22 20:52:58;;;;;;;3.03;1.63;;;;;;;23.96;51.22;100047.88;10530664;28;20040;-72
2022/07/22 20:58:00;;;;;;;1.40;1.30;;;;;;;23.83;52.06;100063.34;10547411;28;20060;-70
2022/07/22 21:03:01;;;;;;;1.45;1.25;;;;;;;23.81;52.28;100066.16;10547260;28;20047;-70
2022/07/22 21:08:03;;;;;;;4.03;1.60;;;;;;;23.55;52.78;100068.38;10530568;28;20044;-70
2022/07/22 21:13:05;;;;;;;1.50;1.40;;;;;;;23.61;52.83;100088.47;10548655;28;20067;-70
2022/07/22 21:18:07;;;;;;;1.48;1.33;;;;;;;23.39;53.51;100090.28;10547822;28;20032;-70
2022/07/22 21:23:09;;;;;;;1.52;1.30;;;;;;;23.51;53.25;100082.19;10530122;28;20051;-70
2022/07/22 21:28:13;;;;;;;1.20;1.10;;;;;;;23.30;53.41;100082.16;10547989;28;20447;-71
2022/07/22 21:33:15;;;;;;;1.25;1.15;;;;;;;23.10;54.27;100082.00;10527421;28;20481;-70
2022/07/22 21:38:17;;;;;;;2.58;1.48;;;;;;;23.34;53.46;100081.78;10545658;28;20119;-71
2022/07/22 21:43:21;;;;;;;2.33;1.30;;;;;;;23.14;54.15;100071.88;10545570;28;20051;-71
2022/07/22 21:48:23;;;;;;;2.05;1.63;;;;;;;23.17;53.78;100087.72;10528700;28;20071;-70
2022/07/22 21:53:24;;;;;;;2.20;1.08;;;;;;;23.08;54.08;100092.00;10548287;28;20048;-71
2022/07/22 21:58:26;;;;;;;1.13;1.08;;;;;;;22.86;54.78;100095.56;10529386;28;20044;-71
2022/07/22 22:03:28;;;;;;;1.30;1.20;;;;;;;22.80;54.85;100101.44;10546533;28;20119;-69
2022/07/22 22:08:30;;;;;;;1.48;1.38;;;;;;;22.78;55.16;100105.22;10544201;28;20054;-70
2022/07/22 22:13:32;;;;;;;1.67;1.48;;;;;;;22.60;56.52;100111.09;10544714;28;20051;-70
2022/07/22 22:18:33;;;;;;;2.47;1.10;;;;;;;22.29;57.56;100111.84;10526493;28;20075;-70
2022/07/22 22:23:35;;;;;;;1.88;1.45;;;;;;;22.26;58.12;100110.25;10545520;28;20040;-70
2022/07/22 22:28:37;;;;;;;3.38;1.20;;;;;;;22.22;56.99;100113.28;10545328;28;20082;-70
2022/07/22 22:33:38;;;;;;;1.35;1.25;;;;;;;22.27;57.08;100098.59;10547291;28;20046;-70
2022/07/22 22:38:40;;;;;;;2.00;1.20;;;;;;;22.04;58.73;100083.44;10525438;28;20040;-70
2022/07/22 22:43:42;;;;;;;1.30;1.17;;;;;;;21.97;59.15;100074.19;10526318;28;20071;-70
2022/07/22 22:48:43;;;;;;;0.90;0.90;;;;;;;21.98;58.68;100073.22;10543858;28;20047;-71
2022/07/22 22:53:45;;;;;;;2.55;1.20;;;;;;;22.20;57.84;100059.88;10543914;28;20115;-70
2022/07/22 22:58:47;;;;;;;2.08;1.23;;;;;;;21.87;59.10;100050.84;10528611;28;20040;-70
2022/07/22 23:03:51;;;;;;;6.05;1.50;;;;;;;22.07;58.45;100054.59;10525858;28;20039;-71
2022/07/22 23:08:53;;;;;;;1.20;1.10;;;;;;;21.86;59.30;100050.94;10526092;28;20047;-69
2022/07/22 23:13:55;;;;;;;1.30;1.20;;;;;;;21.63;60.38;100048.22;10543493;28;20066;-70
2022/07/22 23:18:57;;;;;;;2.35;1.40;;;;;;;21.44;61.29;100042.63;10546975;28;20047;-70
2022/07/22 23:23:59;;;;;;;1.50;1.40;;;;;;;21.53;61.08;100043.72;10545258;28;20111;-70